Thurles, Ireland
Current Conditions -  °F | °C
As of 1:00 PM on Sunday 21 Dec 2014 (Local Time) from EIWF Reporting Station
Haze Haze  
Wind Chill: 10°   Ceiling: 200
Heat Index: 10°   Visibility: 2.8mi
Dew Point: 10°   Wind: 22mph
Humidity: 100%   Direction: 240°WSW
Pressure: 30.21"   Gusts: NA
Location:  52.68°N, 7.48°W
Report Text: EIWF 211200Z 24019KT 200V290 4600 BR OVC002 10/10 Q1023 R21/1/////
Loading
Personal Weather Stations






























Interactive Weather Map New forecast layout! Learn more

10-Day Weather Forecast

Advertisements
Track Severe Weather on mobile